sensor_id;sensor_type;location;lat;lon;timestamp;P1;durP1;ratioP1;P2;durP2;ratioP2
66272;SDS011;58450;52.150;4.466;2023-03-31T00:00:42;15.55;;;3.40;;
66272;SDS011;58450;52.150;4.466;2023-03-31T00:03:11;18.05;;;3.42;;
66272;SDS011;58450;52.150;4.466;2023-03-31T00:05:48;16.80;;;3.35;;
66272;SDS011;58450;52.150;4.466;2023-03-31T00:08:18;15.75;;;3.42;;
66272;SDS011;58450;52.150;4.466;2023-03-31T00:10:46;14.35;;;2.78;;
66272;SDS011;58450;52.150;4.466;2023-03-31T00:13:13;13.43;;;3.15;;
66272;SDS011;58450;52.150;4.466;2023-03-31T00:15:41;16.63;;;3.55;;
66272;SDS011;58450;52.150;4.466;2023-03-31T00:18:09;16.25;;;3.03;;
66272;SDS011;58450;52.150;4.466;2023-03-31T00:20:36;19.33;;;3.85;;
66272;SDS011;58450;52.150;4.466;2023-03-31T00:23:05;19.52;;;3.38;;
66272;SDS011;58450;52.150;4.466;2023-03-31T00:25:38;15.43;;;3.08;;
66272;SDS011;58450;52.150;4.466;2023-03-31T00:28:06;19.33;;;3.00;;
66272;SDS011;58450;52.150;4.466;2023-03-31T00:30:34;19.77;;;3.60;;
66272;SDS011;58450;52.150;4.466;2023-03-31T00:33:01;13.18;;;3.00;;
66272;SDS011;58450;52.150;4.466;2023-03-31T00:35:29;18.60;;;3.58;;
66272;SDS011;58450;52.150;4.466;2023-03-31T00:37:56;14.80;;;3.88;;
66272;SDS011;58450;52.150;4.466;2023-03-31T00:40:26;13.85;;;3.10;;
66272;SDS011;58450;52.150;4.466;2023-03-31T00:42:53;10.05;;;2.58;;
66272;SDS011;58450;52.150;4.466;2023-03-31T00:45:25;11.90;;;2.80;;
66272;SDS011;58450;52.150;4.466;2023-03-31T00:50:29;13.00;;;2.75;;
66272;SDS011;58450;52.150;4.466;2023-03-31T00:53:04;11.70;;;2.58;;
66272;SDS011;58450;52.150;4.466;2023-03-31T00:55:39;9.80;;;2.45;;
66272;SDS011;58450;52.150;4.466;2023-03-31T00:58:11;8.82;;;2.70;;
66272;SDS011;58450;52.150;4.466;2023-03-31T01:00:44;11.40;;;2.37;;
66272;SDS011;58450;52.150;4.466;2023-03-31T01:03:13;11.80;;;2.60;;
66272;SDS011;58450;52.150;4.466;2023-03-31T01:05:43;8.45;;;2.17;;
66272;SDS011;58450;52.150;4.466;2023-03-31T01:08:15;13.38;;;2.40;;
66272;SDS011;58450;52.150;4.466;2023-03-31T01:10:51;11.55;;;3.13;;
66272;SDS011;58450;52.150;4.466;2023-03-31T01:13:22;11.27;;;2.85;;
66272;SDS011;58450;52.150;4.466;2023-03-31T01:15:52;13.43;;;3.35;;
66272;SDS011;58450;52.150;4.466;2023-03-31T01:18:20;10.77;;;2.80;;
66272;SDS011;58450;52.150;4.466;2023-03-31T01:20:52;12.88;;;2.97;;
66272;SDS011;58450;52.150;4.466;2023-03-31T01:27:34;14.27;;;3.50;;
66272;SDS011;58450;52.150;4.466;2023-03-31T01:30:24;14.75;;;3.55;;
66272;SDS011;58450;52.150;4.466;2023-03-31T01:33:31;13.35;;;3.58;;
66272;SDS011;58450;52.150;4.466;2023-03-31T01:40:05;15.88;;;3.45;;
66272;SDS011;58450;52.150;4.466;2023-03-31T01:43:01;13.30;;;3.42;;
66272;SDS011;58450;52.150;4.466;2023-03-31T01:45:38;12.80;;;3.70;;
66272;SDS011;58450;52.150;4.466;2023-03-31T01:48:22;15.63;;;3.78;;
66272;SDS011;58450;52.150;4.466;2023-03-31T01:51:02;11.32;;;3.53;;
66272;SDS011;58450;52.150;4.466;2023-03-31T01:53:41;15.93;;;3.72;;
66272;SDS011;58450;52.150;4.466;2023-03-31T01:56:18;13.30;;;3.90;;
66272;SDS011;58450;52.150;4.466;2023-03-31T01:58:55;13.30;;;3.78;;
66272;SDS011;58450;52.150;4.466;2023-03-31T02:01:30;12.90;;;3.45;;
66272;SDS011;58450;52.150;4.466;2023-03-31T02:04:05;14.30;;;3.63;;
66272;SDS011;58450;52.150;4.466;2023-03-31T02:06:41;15.25;;;3.25;;
66272;SDS011;58450;52.150;4.466;2023-03-31T02:09:18;9.20;;;2.50;;
66272;SDS011;58450;52.150;4.466;2023-03-31T02:11:51;19.13;;;3.70;;
66272;SDS011;58450;52.150;4.466;2023-03-31T02:14:24;11.25;;;3.00;;
66272;SDS011;58450;52.150;4.466;2023-03-31T02:16:57;11.60;;;3.38;;
66272;SDS011;58450;52.150;4.466;2023-03-31T02:19:28;11.00;;;3.38;;
66272;SDS011;58450;52.150;4.466;2023-03-31T02:22:00;16.10;;;3.70;;
66272;SDS011;58450;52.150;4.466;2023-03-31T02:24:32;11.68;;;2.78;;
66272;SDS011;58450;52.150;4.466;2023-03-31T02:27:06;11.27;;;3.17;;
66272;SDS011;58450;52.150;4.466;2023-03-31T02:29:41;11.15;;;3.05;;
66272;SDS011;58450;52.150;4.466;2023-03-31T02:32:10;11.88;;;2.88;;
66272;SDS011;58450;52.150;4.466;2023-03-31T02:34:44;13.23;;;3.17;;
66272;SDS011;58450;52.150;4.466;2023-03-31T02:37:12;12.00;;;3.40;;
66272;SDS011;58450;52.150;4.466;2023-03-31T02:39:41;13.52;;;3.03;;
66272;SDS011;58450;52.150;4.466;2023-03-31T02:42:14;13.63;;;3.53;;
66272;SDS011;58450;52.150;4.466;2023-03-31T02:44:42;15.82;;;4.10;;
66272;SDS011;58450;52.150;4.466;2023-03-31T02:47:12;11.40;;;3.30;;
66272;SDS011;58450;52.150;4.466;2023-03-31T02:49:43;13.52;;;3.42;;
66272;SDS011;58450;52.150;4.466;2023-03-31T02:52:27;9.98;;;3.25;;
66272;SDS011;58450;52.150;4.466;2023-03-31T02:55:27;12.88;;;3.25;;
66272;SDS011;58450;52.150;4.466;2023-03-31T03:01:31;11.43;;;2.47;;
66272;SDS011;58450;52.150;4.466;2023-03-31T03:04:17;14.00;;;3.58;;
66272;SDS011;58450;52.150;4.466;2023-03-31T03:07:04;12.95;;;3.92;;
66272;SDS011;58450;52.150;4.466;2023-03-31T03:09:44;11.95;;;3.47;;
66272;SDS011;58450;52.150;4.466;2023-03-31T03:12:31;10.05;;;3.17;;
66272;SDS011;58450;52.150;4.466;2023-03-31T03:15:09;10.13;;;3.20;;
66272;SDS011;58450;52.150;4.466;2023-03-31T03:17:42;9.55;;;3.35;;
66272;SDS011;58450;52.150;4.466;2023-03-31T03:20:15;10.25;;;3.40;;
66272;SDS011;58450;52.150;4.466;2023-03-31T03:22:46;11.52;;;3.17;;
66272;SDS011;58450;52.150;4.466;2023-03-31T03:25:14;11.32;;;3.22;;
66272;SDS011;58450;52.150;4.466;2023-03-31T03:27:45;11.07;;;3.05;;
66272;SDS011;58450;52.150;4.466;2023-03-31T03:30:14;11.30;;;3.08;;
66272;SDS011;58450;52.150;4.466;2023-03-31T03:32:42;8.68;;;3.00;;
66272;SDS011;58450;52.150;4.466;2023-03-31T03:35:11;10.38;;;2.80;;
66272;SDS011;58450;52.150;4.466;2023-03-31T03:37:39;10.27;;;2.55;;
66272;SDS011;58450;52.150;4.466;2023-03-31T03:40:07;9.35;;;2.40;;
66272;SDS011;58450;52.150;4.466;2023-03-31T03:42:36;8.52;;;2.45;;
66272;SDS011;58450;52.150;4.466;2023-03-31T03:45:04;8.02;;;2.03;;
66272;SDS011;58450;52.150;4.466;2023-03-31T03:47:34;8.65;;;2.10;;
66272;SDS011;58450;52.150;4.466;2023-03-31T03:50:02;6.00;;;1.52;;
66272;SDS011;58450;52.150;4.466;2023-03-31T03:52:30;6.72;;;1.83;;
66272;SDS011;58450;52.150;4.466;2023-03-31T03:54:57;8.70;;;1.88;;
66272;SDS011;58450;52.150;4.466;2023-03-31T03:57:26;6.90;;;1.50;;
66272;SDS011;58450;52.150;4.466;2023-03-31T03:59:54;4.07;;;1.17;;
66272;SDS011;58450;52.150;4.466;2023-03-31T04:02:21;8.55;;;1.50;;
66272;SDS011;58450;52.150;4.466;2023-03-31T04:04:50;4.03;;;1.10;;
66272;SDS011;58450;52.150;4.466;2023-03-31T04:07:18;3.35;;;1.20;;
66272;SDS011;58450;52.150;4.466;2023-03-31T04:09:45;7.25;;;1.50;;
66272;SDS011;58450;52.150;4.466;2023-03-31T04:12:13;3.88;;;1.30;;
66272;SDS011;58450;52.150;4.466;2023-03-31T04:14:40;5.13;;;1.70;;
66272;SDS011;58450;52.150;4.466;2023-03-31T04:17:08;8.00;;;2.22;;
66272;SDS011;58450;52.150;4.466;2023-03-31T04:19:40;9.95;;;2.72;;
66272;SDS011;58450;52.150;4.466;2023-03-31T04:22:09;8.38;;;2.72;;
66272;SDS011;58450;52.150;4.466;2023-03-31T04:24:40;10.93;;;3.90;;
66272;SDS011;58450;52.150;4.466;2023-03-31T04:27:10;11.40;;;4.18;;
66272;SDS011;58450;52.150;4.466;2023-03-31T04:29:38;9.23;;;3.40;;
66272;SDS011;58450;52.150;4.466;2023-03-31T04:32:07;8.45;;;3.40;;
66272;SDS011;58450;52.150;4.466;2023-03-31T04:34:34;8.77;;;4.13;;
66272;SDS011;58450;52.150;4.466;2023-03-31T04:37:02;12.23;;;4.47;;
66272;SDS011;58450;52.150;4.466;2023-03-31T04:39:31;12.95;;;4.90;;
66272;SDS011;58450;52.150;4.466;2023-03-31T04:41:59;11.98;;;4.85;;
66272;SDS011;58450;52.150;4.466;2023-03-31T04:44:27;12.90;;;4.40;;
66272;SDS011;58450;52.150;4.466;2023-03-31T04:46:55;11.40;;;4.72;;
66272;SDS011;58450;52.150;4.466;2023-03-31T04:49:23;11.60;;;4.40;;
66272;SDS011;58450;52.150;4.466;2023-03-31T04:51:51;16.90;;;4.43;;
66272;SDS011;58450;52.150;4.466;2023-03-31T04:54:18;12.88;;;3.88;;
66272;SDS011;58450;52.150;4.466;2023-03-31T04:56:47;12.27;;;4.40;;
66272;SDS011;58450;52.150;4.466;2023-03-31T04:59:15;12.80;;;4.00;;
66272;SDS011;58450;52.150;4.466;2023-03-31T05:01:43;10.68;;;3.53;;
66272;SDS011;58450;52.150;4.466;2023-03-31T05:04:10;10.02;;;3.25;;
66272;SDS011;58450;52.150;4.466;2023-03-31T05:06:38;12.02;;;3.55;;
66272;SDS011;58450;52.150;4.466;2023-03-31T05:09:05;8.07;;;2.95;;
66272;SDS011;58450;52.150;4.466;2023-03-31T05:11:34;11.68;;;2.85;;
66272;SDS011;58450;52.150;4.466;2023-03-31T05:14:04;7.55;;;2.83;;
66272;SDS011;58450;52.150;4.466;2023-03-31T05:16:31;10.25;;;2.95;;
66272;SDS011;58450;52.150;4.466;2023-03-31T05:18:59;11.80;;;3.10;;
66272;SDS011;58450;52.150;4.466;2023-03-31T05:21:27;10.32;;;3.00;;
66272;SDS011;58450;52.150;4.466;2023-03-31T05:23:56;7.80;;;2.40;;
66272;SDS011;58450;52.150;4.466;2023-03-31T05:26:24;7.75;;;2.83;;
66272;SDS011;58450;52.150;4.466;2023-03-31T05:28:52;11.20;;;2.60;;
66272;SDS011;58450;52.150;4.466;2023-03-31T05:31:22;9.77;;;2.40;;
66272;SDS011;58450;52.150;4.466;2023-03-31T05:33:49;7.88;;;2.13;;
66272;SDS011;58450;52.150;4.466;2023-03-31T05:36:17;7.30;;;2.30;;
66272;SDS011;58450;52.150;4.466;2023-03-31T05:38:45;5.28;;;1.80;;
66272;SDS011;58450;52.150;4.466;2023-03-31T05:41:12;5.55;;;1.75;;
66272;SDS011;58450;52.150;4.466;2023-03-31T05:43:41;4.43;;;1.83;;
66272;SDS011;58450;52.150;4.466;2023-03-31T05:46:09;5.85;;;1.80;;
66272;SDS011;58450;52.150;4.466;2023-03-31T05:48:37;6.90;;;2.00;;
66272;SDS011;58450;52.150;4.466;2023-03-31T05:51:06;7.20;;;2.10;;
66272;SDS011;58450;52.150;4.466;2023-03-31T05:53:33;7.60;;;2.15;;
66272;SDS011;58450;52.150;4.466;2023-03-31T05:56:01;5.20;;;1.77;;
66272;SDS011;58450;52.150;4.466;2023-03-31T05:58:32;4.20;;;1.58;;
66272;SDS011;58450;52.150;4.466;2023-03-31T06:01:01;7.43;;;1.85;;
66272;SDS011;58450;52.150;4.466;2023-03-31T06:03:31;7.40;;;1.90;;
66272;SDS011;58450;52.150;4.466;2023-03-31T06:06:00;4.18;;;1.40;;
66272;SDS011;58450;52.150;4.466;2023-03-31T06:08:30;4.43;;;1.67;;
66272;SDS011;58450;52.150;4.466;2023-03-31T06:10:58;5.35;;;1.70;;
66272;SDS011;58450;52.150;4.466;2023-03-31T06:13:25;7.63;;;1.65;;
66272;SDS011;58450;52.150;4.466;2023-03-31T06:15:53;6.35;;;1.65;;
66272;SDS011;58450;52.150;4.466;2023-03-31T06:18:21;4.80;;;1.67;;
66272;SDS011;58450;52.150;4.466;2023-03-31T06:20:50;3.42;;;1.30;;
66272;SDS011;58450;52.150;4.466;2023-03-31T06:23:19;5.65;;;1.67;;
66272;SDS011;58450;52.150;4.466;2023-03-31T06:25:47;5.60;;;1.63;;
66272;SDS011;58450;52.150;4.466;2023-03-31T06:28:15;6.28;;;1.80;;
66272;SDS011;58450;52.150;4.466;2023-03-31T06:30:42;6.30;;;2.08;;
66272;SDS011;58450;52.150;4.466;2023-03-31T06:33:10;3.67;;;1.35;;
66272;SDS011;58450;52.150;4.466;2023-03-31T06:35:38;4.20;;;1.48;;
66272;SDS011;58450;52.150;4.466;2023-03-31T06:38:06;5.00;;;1.45;;
66272;SDS011;58450;52.150;4.466;2023-03-31T06:40:35;6.57;;;1.45;;
66272;SDS011;58450;52.150;4.466;2023-03-31T06:43:03;4.82;;;1.38;;
66272;SDS011;58450;52.150;4.466;2023-03-31T06:45:30;3.50;;;1.20;;
66272;SDS011;58450;52.150;4.466;2023-03-31T06:47:58;5.25;;;1.70;;
66272;SDS011;58450;52.150;4.466;2023-03-31T06:50:26;4.43;;;1.35;;
66272;SDS011;58450;52.150;4.466;2023-03-31T06:52:53;4.85;;;1.30;;
66272;SDS011;58450;52.150;4.466;2023-03-31T06:55:20;4.70;;;1.38;;
66272;SDS011;58450;52.150;4.466;2023-03-31T06:57:49;4.78;;;1.60;;
66272;SDS011;58450;52.150;4.466;2023-03-31T07:00:17;4.78;;;1.40;;
66272;SDS011;58450;52.150;4.466;2023-03-31T07:02:45;5.63;;;1.50;;
66272;SDS011;58450;52.150;4.466;2023-03-31T07:05:13;4.05;;;1.60;;
66272;SDS011;58450;52.150;4.466;2023-03-31T07:07:40;5.13;;;1.70;;
66272;SDS011;58450;52.150;4.466;2023-03-31T07:10:08;7.63;;;2.03;;
66272;SDS011;58450;52.150;4.466;2023-03-31T07:12:36;5.47;;;1.75;;
66272;SDS011;58450;52.150;4.466;2023-03-31T07:15:05;6.18;;;1.80;;
66272;SDS011;58450;52.150;4.466;2023-03-31T07:17:34;6.30;;;2.00;;
66272;SDS011;58450;52.150;4.466;2023-03-31T07:20:02;5.45;;;1.85;;
66272;SDS011;58450;52.150;4.466;2023-03-31T07:22:35;6.07;;;2.03;;
66272;SDS011;58450;52.150;4.466;2023-03-31T07:25:03;8.23;;;2.40;;
66272;SDS011;58450;52.150;4.466;2023-03-31T07:27:31;7.65;;;2.30;;
66272;SDS011;58450;52.150;4.466;2023-03-31T07:29:58;7.47;;;2.30;;
66272;SDS011;58450;52.150;4.466;2023-03-31T07:32:27;8.60;;;2.50;;
66272;SDS011;58450;52.150;4.466;2023-03-31T07:34:55;9.43;;;2.25;;
66272;SDS011;58450;52.150;4.466;2023-03-31T07:37:23;10.90;;;3.03;;
66272;SDS011;58450;52.150;4.466;2023-03-31T07:39:50;9.80;;;2.72;;
66272;SDS011;58450;52.150;4.466;2023-03-31T07:42:18;9.43;;;3.08;;
66272;SDS011;58450;52.150;4.466;2023-03-31T07:44:46;9.57;;;2.70;;
66272;SDS011;58450;52.150;4.466;2023-03-31T07:47:13;10.85;;;3.13;;
66272;SDS011;58450;52.150;4.466;2023-03-31T07:49:42;13.00;;;3.00;;
66272;SDS011;58450;52.150;4.466;2023-03-31T07:52:10;11.10;;;3.17;;
66272;SDS011;58450;52.150;4.466;2023-03-31T07:54:38;8.77;;;2.80;;
66272;SDS011;58450;52.150;4.466;2023-03-31T07:57:05;11.50;;;3.00;;
66272;SDS011;58450;52.150;4.466;2023-03-31T07:59:33;10.13;;;2.80;;
66272;SDS011;58450;52.150;4.466;2023-03-31T08:02:00;10.75;;;2.95;;
66272;SDS011;58450;52.150;4.466;2023-03-31T08:04:28;9.68;;;3.10;;
66272;SDS011;58450;52.150;4.466;2023-03-31T08:06:57;11.60;;;2.78;;
66272;SDS011;58450;52.150;4.466;2023-03-31T08:09:24;11.20;;;2.90;;
66272;SDS011;58450;52.150;4.466;2023-03-31T08:11:52;12.18;;;3.35;;
66272;SDS011;58450;52.150;4.466;2023-03-31T08:14:19;11.90;;;3.17;;
66272;SDS011;58450;52.150;4.466;2023-03-31T08:16:47;14.88;;;3.03;;
66272;SDS011;58450;52.150;4.466;2023-03-31T08:19:14;12.90;;;3.25;;
66272;SDS011;58450;52.150;4.466;2023-03-31T08:21:42;14.18;;;3.47;;
66272;SDS011;58450;52.150;4.466;2023-03-31T08:24:11;11.38;;;2.55;;
66272;SDS011;58450;52.150;4.466;2023-03-31T08:26:39;13.30;;;2.97;;
66272;SDS011;58450;52.150;4.466;2023-03-31T08:29:07;10.20;;;3.25;;
66272;SDS011;58450;52.150;4.466;2023-03-31T08:31:35;11.50;;;2.72;;
66272;SDS011;58450;52.150;4.466;2023-03-31T08:34:02;13.60;;;3.10;;
66272;SDS011;58450;52.150;4.466;2023-03-31T08:36:30;12.82;;;2.70;;
66272;SDS011;58450;52.150;4.466;2023-03-31T08:38:58;13.02;;;3.00;;
66272;SDS011;58450;52.150;4.466;2023-03-31T08:41:32;10.80;;;2.42;;
66272;SDS011;58450;52.150;4.466;2023-03-31T08:44:25;11.32;;;3.05;;
66272;SDS011;58450;52.150;4.466;2023-03-31T08:47:00;13.02;;;3.08;;
66272;SDS011;58450;52.150;4.466;2023-03-31T08:49:35;11.63;;;2.78;;
66272;SDS011;58450;52.150;4.466;2023-03-31T08:52:11;12.73;;;2.92;;
66272;SDS011;58450;52.150;4.466;2023-03-31T08:54:45;15.40;;;3.63;;
66272;SDS011;58450;52.150;4.466;2023-03-31T08:57:19;16.40;;;3.45;;
66272;SDS011;58450;52.150;4.466;2023-03-31T08:59:52;16.80;;;3.55;;
66272;SDS011;58450;52.150;4.466;2023-03-31T09:02:25;17.58;;;3.55;;
66272;SDS011;58450;52.150;4.466;2023-03-31T09:05:08;14.50;;;3.95;;
66272;SDS011;58450;52.150;4.466;2023-03-31T09:07:58;16.60;;;3.55;;
66272;SDS011;58450;52.150;4.466;2023-03-31T09:10:38;17.25;;;3.53;;
66272;SDS011;58450;52.150;4.466;2023-03-31T09:13:22;15.60;;;3.72;;
66272;SDS011;58450;52.150;4.466;2023-03-31T09:16:11;18.17;;;3.53;;
66272;SDS011;58450;52.150;4.466;2023-03-31T09:18:41;14.77;;;3.47;;
66272;SDS011;58450;52.150;4.466;2023-03-31T09:21:13;16.33;;;3.47;;
66272;SDS011;58450;52.150;4.466;2023-03-31T09:23:52;11.80;;;3.13;;
66272;SDS011;58450;52.150;4.466;2023-03-31T09:26:31;16.58;;;3.22;;
66272;SDS011;58450;52.150;4.466;2023-03-31T09:29:09;15.90;;;3.00;;
66272;SDS011;58450;52.150;4.466;2023-03-31T09:31:44;12.68;;;3.13;;
66272;SDS011;58450;52.150;4.466;2023-03-31T09:34:14;13.57;;;3.10;;
66272;SDS011;58450;52.150;4.466;2023-03-31T09:36:48;12.45;;;2.65;;
66272;SDS011;58450;52.150;4.466;2023-03-31T09:39:15;13.35;;;2.83;;
66272;SDS011;58450;52.150;4.466;2023-03-31T09:41:43;14.23;;;3.00;;
66272;SDS011;58450;52.150;4.466;2023-03-31T09:44:19;13.20;;;2.95;;
66272;SDS011;58450;52.150;4.466;2023-03-31T09:46:53;10.80;;;2.72;;
66272;SDS011;58450;52.150;4.466;2023-03-31T09:49:22;11.63;;;3.10;;
66272;SDS011;58450;52.150;4.466;2023-03-31T09:52:00;14.18;;;3.55;;
66272;SDS011;58450;52.150;4.466;2023-03-31T09:57:11;16.15;;;3.00;;
66272;SDS011;58450;52.150;4.466;2023-03-31T09:59:43;16.85;;;3.88;;
66272;SDS011;58450;52.150;4.466;2023-03-31T10:02:22;17.85;;;3.78;;
66272;SDS011;58450;52.150;4.466;2023-03-31T10:05:01;13.45;;;4.20;;
66272;SDS011;58450;52.150;4.466;2023-03-31T10:07:31;16.70;;;3.47;;
66272;SDS011;58450;52.150;4.466;2023-03-31T10:10:00;18.10;;;3.90;;
66272;SDS011;58450;52.150;4.466;2023-03-31T10:12:29;17.15;;;4.05;;
66272;SDS011;58450;52.150;4.466;2023-03-31T10:15:18;18.63;;;3.67;;
66272;SDS011;58450;52.150;4.466;2023-03-31T10:17:48;19.33;;;3.67;;
66272;SDS011;58450;52.150;4.466;2023-03-31T10:20:18;19.05;;;4.13;;
66272;SDS011;58450;52.150;4.466;2023-03-31T10:23:01;14.27;;;3.50;;
66272;SDS011;58450;52.150;4.466;2023-03-31T10:25:32;12.68;;;3.70;;
66272;SDS011;58450;52.150;4.466;2023-03-31T10:28:00;13.95;;;3.25;;
66272;SDS011;58450;52.150;4.466;2023-03-31T10:30:32;16.77;;;3.40;;
66272;SDS011;58450;52.150;4.466;2023-03-31T10:33:05;11.48;;;3.03;;
66272;SDS011;58450;52.150;4.466;2023-03-31T10:35:40;16.65;;;2.80;;
66272;SDS011;58450;52.150;4.466;2023-03-31T10:38:09;10.63;;;2.75;;
66272;SDS011;58450;52.150;4.466;2023-03-31T10:40:47;10.40;;;2.80;;
66272;SDS011;58450;52.150;4.466;2023-03-31T10:43:18;11.98;;;2.88;;
66272;SDS011;58450;52.150;4.466;2023-03-31T10:45:54;10.48;;;2.70;;
66272;SDS011;58450;52.150;4.466;2023-03-31T10:48:25;11.40;;;2.58;;
66272;SDS011;58450;52.150;4.466;2023-03-31T10:50:57;9.48;;;2.30;;
66272;SDS011;58450;52.150;4.466;2023-03-31T10:53:27;10.35;;;2.42;;
66272;SDS011;58450;52.150;4.466;2023-03-31T10:55:58;12.60;;;2.65;;
66272;SDS011;58450;52.150;4.466;2023-03-31T10:58:47;10.35;;;2.42;;
66272;SDS011;58450;52.150;4.466;2023-03-31T11:01:40;12.50;;;2.50;;
66272;SDS011;58450;52.150;4.466;2023-03-31T11:04:45;13.07;;;2.95;;
66272;SDS011;58450;52.150;4.466;2023-03-31T11:07:31;10.38;;;2.80;;
66272;SDS011;58450;52.150;4.466;2023-03-31T11:10:28;10.68;;;2.55;;
66272;SDS011;58450;52.150;4.466;2023-03-31T11:13:11;11.93;;;2.40;;
66272;SDS011;58450;52.150;4.466;2023-03-31T11:15:53;7.60;;;2.28;;
66272;SDS011;58450;52.150;4.466;2023-03-31T11:18:42;11.02;;;2.03;;
66272;SDS011;58450;52.150;4.466;2023-03-31T11:21:32;11.15;;;2.25;;
66272;SDS011;58450;52.150;4.466;2023-03-31T11:24:19;10.07;;;2.30;;
66272;SDS011;58450;52.150;4.466;2023-03-31T11:27:22;10.05;;;2.10;;
66272;SDS011;58450;52.150;4.466;2023-03-31T11:30:08;7.45;;;2.13;;
66272;SDS011;58450;52.150;4.466;2023-03-31T11:32:52;8.32;;;2.17;;
66272;SDS011;58450;52.150;4.466;2023-03-31T11:35:46;9.25;;;2.25;;
66272;SDS011;58450;52.150;4.466;2023-03-31T11:38:33;12.68;;;2.83;;
66272;SDS011;58450;52.150;4.466;2023-03-31T11:41:18;12.35;;;2.60;;
66272;SDS011;58450;52.150;4.466;2023-03-31T11:44:00;8.57;;;2.30;;
66272;SDS011;58450;52.150;4.466;2023-03-31T11:46:34;9.07;;;2.10;;
66272;SDS011;58450;52.150;4.466;2023-03-31T11:49:10;11.18;;;2.28;;
66272;SDS011;58450;52.150;4.466;2023-03-31T11:51:49;10.75;;;2.60;;
66272;SDS011;58450;52.150;4.466;2023-03-31T11:54:23;7.90;;;2.13;;
66272;SDS011;58450;52.150;4.466;2023-03-31T11:56:57;8.55;;;2.22;;
66272;SDS011;58450;52.150;4.466;2023-03-31T11:59:29;6.40;;;1.75;;
66272;SDS011;58450;52.150;4.466;2023-03-31T12:02:01;7.63;;;1.83;;
66272;SDS011;58450;52.150;4.466;2023-03-31T12:04:41;6.82;;;1.88;;
66272;SDS011;58450;52.150;4.466;2023-03-31T12:07:19;4.93;;;1.45;;
66272;SDS011;58450;52.150;4.466;2023-03-31T12:09:56;5.60;;;1.40;;
66272;SDS011;58450;52.150;4.466;2023-03-31T12:12:32;6.47;;;1.30;;
66272;SDS011;58450;52.150;4.466;2023-03-31T12:15:07;6.38;;;1.70;;
66272;SDS011;58450;52.150;4.466;2023-03-31T12:17:46;7.43;;;1.73;;
66272;SDS011;58450;52.150;4.466;2023-03-31T12:20:24;8.35;;;1.63;;
66272;SDS011;58450;52.150;4.466;2023-03-31T12:23:00;7.75;;;1.58;;
66272;SDS011;58450;52.150;4.466;2023-03-31T12:25:36;8.00;;;2.10;;
66272;SDS011;58450;52.150;4.466;2023-03-31T12:28:13;8.63;;;2.35;;
66272;SDS011;58450;52.150;4.466;2023-03-31T12:30:44;7.45;;;1.90;;
66272;SDS011;58450;52.150;4.466;2023-03-31T12:33:15;5.47;;;1.60;;
66272;SDS011;58450;52.150;4.466;2023-03-31T12:38:44;9.68;;;2.22;;
66272;SDS011;58450;52.150;4.466;2023-03-31T12:41:28;8.93;;;2.22;;
66272;SDS011;58450;52.150;4.466;2023-03-31T12:44:14;9.70;;;2.03;;
66272;SDS011;58450;52.150;4.466;2023-03-31T12:50:08;7.25;;;2.38;;
66272;SDS011;58450;52.150;4.466;2023-03-31T12:53:10;8.93;;;2.30;;
66272;SDS011;58450;52.150;4.466;2023-03-31T12:55:52;9.43;;;2.40;;
66272;SDS011;58450;52.150;4.466;2023-03-31T12:58:41;7.07;;;2.10;;
66272;SDS011;58450;52.150;4.466;2023-03-31T13:01:12;6.60;;;2.40;;
66272;SDS011;58450;52.150;4.466;2023-03-31T13:03:43;7.70;;;2.25;;
66272;SDS011;58450;52.150;4.466;2023-03-31T13:06:45;6.43;;;2.03;;
66272;SDS011;58450;52.150;4.466;2023-03-31T13:09:38;6.25;;;2.00;;
66272;SDS011;58450;52.150;4.466;2023-03-31T13:12:21;5.40;;;2.35;;
66272;SDS011;58450;52.150;4.466;2023-03-31T13:17:25;6.72;;;2.40;;
66272;SDS011;58450;52.150;4.466;2023-03-31T13:22:58;8.40;;;2.67;;
66272;SDS011;58450;52.150;4.466;2023-03-31T13:25:34;7.18;;;2.33;;
66272;SDS011;58450;52.150;4.466;2023-03-31T13:31:07;5.28;;;1.85;;
66272;SDS011;58450;52.150;4.466;2023-03-31T13:33:38;6.40;;;1.52;;
66272;SDS011;58450;52.150;4.466;2023-03-31T13:39:43;5.80;;;1.77;;
66272;SDS011;58450;52.150;4.466;2023-03-31T13:45:49;5.55;;;1.95;;
66272;SDS011;58450;52.150;4.466;2023-03-31T13:51:34;4.50;;;2.05;;
66272;SDS011;58450;52.150;4.466;2023-03-31T13:57:51;8.18;;;2.63;;
66272;SDS011;58450;52.150;4.466;2023-03-31T14:00:54;5.65;;;2.30;;
66272;SDS011;58450;52.150;4.466;2023-03-31T14:04:07;8.50;;;2.30;;
66272;SDS011;58450;52.150;4.466;2023-03-31T14:06:56;6.80;;;2.78;;
66272;SDS011;58450;52.150;4.466;2023-03-31T14:09:33;6.70;;;2.40;;
66272;SDS011;58450;52.150;4.466;2023-03-31T14:12:17;7.82;;;3.08;;
66272;SDS011;58450;52.150;4.466;2023-03-31T14:14:47;5.32;;;2.38;;
66272;SDS011;58450;52.150;4.466;2023-03-31T14:17:20;8.52;;;2.85;;
66272;SDS011;58450;52.150;4.466;2023-03-31T14:22:59;8.98;;;3.40;;
66272;SDS011;58450;52.150;4.466;2023-03-31T14:25:43;7.93;;;3.20;;
66272;SDS011;58450;52.150;4.466;2023-03-31T14:28:24;9.00;;;3.33;;
66272;SDS011;58450;52.150;4.466;2023-03-31T14:31:12;8.18;;;3.42;;
66272;SDS011;58450;52.150;4.466;2023-03-31T14:33:53;8.80;;;3.50;;
66272;SDS011;58450;52.150;4.466;2023-03-31T14:36:46;7.45;;;3.13;;
66272;SDS011;58450;52.150;4.466;2023-03-31T14:39:25;7.68;;;3.30;;
66272;SDS011;58450;52.150;4.466;2023-03-31T14:41:58;8.38;;;3.22;;
66272;SDS011;58450;52.150;4.466;2023-03-31T14:44:30;7.25;;;3.00;;
66272;SDS011;58450;52.150;4.466;2023-03-31T14:47:00;6.90;;;3.10;;
66272;SDS011;58450;52.150;4.466;2023-03-31T14:49:33;12.65;;;3.58;;
66272;SDS011;58450;52.150;4.466;2023-03-31T14:52:12;8.48;;;3.40;;
66272;SDS011;58450;52.150;4.466;2023-03-31T14:54:44;5.93;;;3.20;;
66272;SDS011;58450;52.150;4.466;2023-03-31T14:57:15;8.45;;;3.70;;
66272;SDS011;58450;52.150;4.466;2023-03-31T14:59:46;9.37;;;3.40;;
66272;SDS011;58450;52.150;4.466;2023-03-31T15:02:18;5.43;;;3.35;;
66272;SDS011;58450;52.150;4.466;2023-03-31T15:04:59;9.70;;;3.97;;
66272;SDS011;58450;52.150;4.466;2023-03-31T15:07:30;10.10;;;3.55;;
66272;SDS011;58450;52.150;4.466;2023-03-31T15:09:58;9.35;;;3.63;;
66272;SDS011;58450;52.150;4.466;2023-03-31T15:12:26;10.55;;;3.70;;
66272;SDS011;58450;52.150;4.466;2023-03-31T15:14:57;9.82;;;3.72;;
66272;SDS011;58450;52.150;4.466;2023-03-31T15:17:30;9.93;;;3.33;;
66272;SDS011;58450;52.150;4.466;2023-03-31T15:20:19;6.43;;;3.17;;
66272;SDS011;58450;52.150;4.466;2023-03-31T15:22:54;9.40;;;3.42;;
66272;SDS011;58450;52.150;4.466;2023-03-31T15:25:23;8.45;;;3.67;;
66272;SDS011;58450;52.150;4.466;2023-03-31T15:27:59;9.38;;;3.97;;
66272;SDS011;58450;52.150;4.466;2023-03-31T15:30:32;8.85;;;3.45;;
66272;SDS011;58450;52.150;4.466;2023-03-31T15:33:00;6.93;;;3.15;;
66272;SDS011;58450;52.150;4.466;2023-03-31T15:35:30;11.07;;;3.70;;
66272;SDS011;58450;52.150;4.466;2023-03-31T15:38:02;7.07;;;3.13;;
66272;SDS011;58450;52.150;4.466;2023-03-31T15:40:34;7.32;;;3.17;;
66272;SDS011;58450;52.150;4.466;2023-03-31T15:43:07;6.97;;;3.47;;
66272;SDS011;58450;52.150;4.466;2023-03-31T15:45:46;7.93;;;3.17;;
66272;SDS011;58450;52.150;4.466;2023-03-31T15:48:18;7.55;;;3.40;;
66272;SDS011;58450;52.150;4.466;2023-03-31T15:50:52;6.10;;;2.75;;
66272;SDS011;58450;52.150;4.466;2023-03-31T15:53:29;8.05;;;3.25;;
66272;SDS011;58450;52.150;4.466;2023-03-31T15:56:02;7.22;;;2.70;;
66272;SDS011;58450;52.150;4.466;2023-03-31T15:58:45;4.38;;;2.40;;
66272;SDS011;58450;52.150;4.466;2023-03-31T16:01:20;6.78;;;2.40;;
66272;SDS011;58450;52.150;4.466;2023-03-31T16:03:53;6.35;;;2.85;;
66272;SDS011;58450;52.150;4.466;2023-03-31T16:06:26;5.63;;;3.03;;